createdAt,value
2022-09-27T00:02:01.856Z,96967.19
2022-09-27T00:04:30.065Z,96957.66
2022-09-27T00:06:58.676Z,96954.63
2022-09-27T00:09:27.329Z,96956.13
2022-09-27T00:11:56.853Z,96955.81
2022-09-27T00:14:25.166Z,96952.34
2022-09-27T00:16:53.210Z,96948.00
2022-09-27T00:19:23.921Z,96941.78
2022-09-27T00:21:52.496Z,96936.72
2022-09-27T00:24:22.386Z,96944.44
2022-09-27T00:26:51.103Z,96940.28
2022-09-27T00:29:21.231Z,96939.97
2022-09-27T00:31:49.560Z,96928.31
2022-09-27T00:34:21.192Z,96925.72
2022-09-27T00:36:49.841Z,96927.38
2022-09-27T00:39:18.230Z,96929.50
2022-09-27T00:41:48.021Z,96928.41
2022-09-27T00:44:51.227Z,96926.31
2022-09-27T00:47:22.988Z,96917.44
2022-09-27T00:49:53.558Z,96913.63
2022-09-27T00:52:25.551Z,96906.63
2022-09-27T00:54:56.359Z,96908.00
2022-09-27T00:57:24.754Z,96900.53
2022-09-27T00:59:59.323Z,96902.28
2022-09-27T01:02:27.956Z,96907.00
2022-09-27T01:04:56.737Z,96904.94
2022-09-27T01:07:24.906Z,96900.81
2022-09-27T01:09:53.098Z,96895.78
2022-09-27T01:12:26.960Z,96893.22
2022-09-27T01:15:08.302Z,96892.44
2022-09-27T01:17:45.697Z,96884.28
2022-09-27T01:20:31.383Z,96888.75
2022-09-27T01:23:13.898Z,96882.00
2022-09-27T01:25:51.722Z,96875.22
2022-09-27T01:28:26.131Z,96878.78
2022-09-27T01:31:01.426Z,96871.69
2022-09-27T01:33:45.124Z,96866.91
2022-09-27T01:36:23.162Z,96860.84
2022-09-27T01:39:00.078Z,96856.88
2022-09-27T01:41:34.903Z,96850.56
2022-09-27T01:44:08.477Z,96853.03
2022-09-27T01:46:41.329Z,96850.28
2022-09-27T01:49:12.913Z,96848.63
2022-09-27T01:51:44.529Z,96847.09
2022-09-27T01:54:14.048Z,96845.47
2022-09-27T01:56:45.329Z,96846.06
2022-09-27T01:59:16.982Z,96837.84
2022-09-27T02:01:49.067Z,96836.13
2022-09-27T02:04:22.286Z,96829.66
2022-09-27T02:06:54.535Z,96825.63
2022-09-27T02:09:26.389Z,96822.00
2022-09-27T02:11:58.679Z,96820.94
2022-09-27T02:14:30.455Z,96820.28
2022-09-27T02:17:01.656Z,96826.09
2022-09-27T02:19:37.497Z,96822.03
2022-09-27T02:22:12.201Z,96828.53
2022-09-27T02:24:43.793Z,96817.81
2022-09-27T02:27:14.836Z,96817.81
2022-09-27T02:29:47.371Z,96801.34
2022-09-27T02:32:18.874Z,96807.63
2022-09-27T02:34:48.303Z,96805.41
2022-09-27T02:37:16.423Z,96799.44
2022-09-27T02:39:45.069Z,96805.28
2022-09-27T02:42:14.024Z,96799.66
2022-09-27T02:44:42.834Z,96806.88
2022-09-27T02:47:37.928Z,96791.91
2022-09-27T02:50:26.247Z,96791.69
2022-09-27T02:53:01.505Z,96779.97
2022-09-27T02:55:40.122Z,96779.69
2022-09-27T02:58:14.370Z,96784.16
2022-09-27T03:00:47.465Z,96776.78
2022-09-27T03:03:19.861Z,96775.28
2022-09-27T03:05:53.769Z,96772.28
2022-09-27T03:08:22.644Z,96776.22
2022-09-27T03:10:51.039Z,96781.56
2022-09-27T03:13:19.235Z,96773.63
2022-09-27T03:15:48.272Z,96776.84
2022-09-27T03:18:16.498Z,96773.84
2022-09-27T03:20:44.653Z,96773.34
2022-09-27T03:23:14.491Z,96773.16
2022-09-27T03:25:42.818Z,96776.19
2022-09-27T03:28:10.862Z,96772.78
2022-09-27T03:30:39.419Z,96778.88
2022-09-27T03:33:09.275Z,96774.66
2022-09-27T03:35:38.011Z,96767.75
2022-09-27T03:38:07.537Z,96774.44
2022-09-27T03:40:37.194Z,96767.44
2022-09-27T03:43:05.335Z,96764.22
2022-09-27T03:45:33.689Z,96765.41
2022-09-27T03:48:02.554Z,96764.75
2022-09-27T03:50:30.672Z,96765.28
2022-09-27T03:52:59.038Z,96757.72
2022-09-27T03:55:27.265Z,96758.78
2022-09-27T03:57:56.669Z,96761.41
2022-09-27T04:00:32.844Z,96755.25
2022-09-27T04:03:01.149Z,96757.06
2022-09-27T04:05:30.537Z,96760.06
2022-09-27T04:07:59.007Z,96749.31
2022-09-27T04:10:27.344Z,96746.56
2022-09-27T04:12:57.444Z,96735.31
2022-09-27T04:15:25.559Z,96748.09
2022-09-27T04:17:53.782Z,96738.25
2022-09-27T04:20:22.192Z,96734.25
2022-09-27T04:22:52.174Z,96737.72
2022-09-27T04:25:20.355Z,96737.66
2022-09-27T04:27:52.111Z,96734.00
2022-09-27T04:30:22.273Z,96736.03
2022-09-27T04:32:50.593Z,96729.88
2022-09-27T04:35:36.865Z,96727.69
2022-09-27T04:38:05.207Z,96728.97
2022-09-27T04:40:35.654Z,96730.78
2022-09-27T04:43:04.570Z,96729.19
2022-09-27T04:45:34.676Z,96723.88
2022-09-27T04:48:03.165Z,96724.34
2022-09-27T04:50:35.831Z,96726.06
2022-09-27T04:53:05.050Z,96719.25
2022-09-27T04:55:33.326Z,96723.34
2022-09-27T04:58:02.087Z,96715.41
2022-09-27T05:00:30.448Z,96723.47
2022-09-27T05:03:00.150Z,96713.91
2022-09-27T05:05:28.219Z,96719.00
2022-09-27T05:07:56.590Z,96716.59
2022-09-27T05:10:24.785Z,96718.25
2022-09-27T05:12:52.901Z,96705.34
2022-09-27T05:15:21.122Z,96704.66
2022-09-27T05:17:52.270Z,96703.09
2022-09-27T05:20:21.781Z,96697.97
2022-09-27T05:22:50.411Z,96703.03
2022-09-27T05:25:19.130Z,96696.53
2022-09-27T05:27:47.862Z,96697.66
2022-09-27T05:30:16.335Z,96702.03
2022-09-27T05:32:46.828Z,96694.28
2022-09-27T05:35:15.042Z,96699.94
2022-09-27T05:37:45.164Z,96687.66
2022-09-27T05:40:36.497Z,96696.59
2022-09-27T05:43:01.486Z,96694.41
2022-09-27T05:45:29.616Z,96705.59
2022-09-27T05:47:58.807Z,96695.00
2022-09-27T05:50:28.231Z,96704.78
2022-09-27T05:52:57.961Z,96692.69
2022-09-27T05:55:26.132Z,96695.41
2022-09-27T05:57:58.231Z,96690.78
2022-09-27T06:00:27.143Z,96689.44
2022-09-27T06:02:57.244Z,96696.41
2022-09-27T06:05:26.527Z,96689.72
2022-09-27T06:08:01.443Z,96696.34
2022-09-27T06:10:30.868Z,96687.78
2022-09-27T06:13:02.596Z,96694.94
2022-09-27T06:15:32.341Z,96687.09
2022-09-27T06:18:05.157Z,96687.13
2022-09-27T06:20:33.895Z,96684.97
2022-09-27T06:23:08.707Z,96681.31
2022-09-27T06:25:37.579Z,96689.97
2022-09-27T06:28:06.653Z,96685.53
2022-09-27T06:30:35.249Z,96681.16
2022-09-27T06:33:04.486Z,96685.94
2022-09-27T06:35:33.257Z,96683.28
2022-09-27T06:38:04.913Z,96692.72
2022-09-27T06:40:35.477Z,96682.28
2022-09-27T06:43:04.886Z,96690.66
2022-09-27T06:45:34.354Z,96676.59
2022-09-27T06:48:03.423Z,96678.69
2022-09-27T06:50:32.918Z,96679.81
2022-09-27T06:53:01.264Z,96673.50
2022-09-27T06:55:29.839Z,96670.03
2022-09-27T06:58:18.449Z,96666.28
2022-09-27T07:00:47.977Z,96661.63
2022-09-27T07:03:16.487Z,96664.84
2022-09-27T07:05:45.016Z,96675.72
2022-09-27T07:08:15.580Z,96663.53
2022-09-27T07:10:43.981Z,96665.63
2022-09-27T07:13:13.688Z,96662.81
2022-09-27T07:15:43.248Z,96667.94
2022-09-27T07:18:12.098Z,96668.69
2022-09-27T07:20:40.435Z,96668.16
2022-09-27T07:23:11.357Z,96662.97
2022-09-27T07:25:40.614Z,96664.56
2022-09-27T07:28:11.849Z,96664.34
2022-09-27T07:30:41.715Z,96664.16
2022-09-27T07:33:10.259Z,96664.03
2022-09-27T07:35:41.154Z,96669.22
2022-09-27T07:38:12.418Z,96665.50
2022-09-27T07:40:41.716Z,96663.53
2022-09-27T07:43:12.656Z,96656.72
2022-09-27T07:45:42.565Z,96656.41
2022-09-27T07:48:15.337Z,96658.78
2022-09-27T07:50:44.547Z,96653.28
2022-09-27T07:53:14.365Z,96654.59
2022-09-27T07:55:43.051Z,96649.34
2022-09-27T07:58:13.912Z,96646.47
2022-09-27T08:00:44.415Z,96646.91
2022-09-27T08:03:17.251Z,96649.41
2022-09-27T08:05:50.052Z,96634.47
2022-09-27T08:08:19.226Z,96631.81
2022-09-27T08:10:48.056Z,96635.19
2022-09-27T08:13:18.160Z,96633.25
2022-09-27T08:15:48.868Z,96636.13
2022-09-27T08:18:17.778Z,96642.59
2022-09-27T08:20:47.185Z,96644.09
2022-09-27T08:23:15.603Z,96640.34
2022-09-27T08:25:44.156Z,96629.75
2022-09-27T08:28:12.489Z,96635.78
2022-09-27T08:30:41.038Z,96631.44
2022-09-27T08:33:11.310Z,96625.25
2022-09-27T08:35:39.609Z,96617.09
2022-09-27T08:38:08.039Z,96619.44
2022-09-27T08:40:47.178Z,96619.72
2022-09-27T08:43:21.868Z,96614.63
2022-09-27T08:46:00.341Z,96611.56
2022-09-27T08:48:31.265Z,96608.94
2022-09-27T08:51:00.122Z,96609.16
2022-09-27T08:53:32.026Z,96606.66
2022-09-27T08:56:04.037Z,96612.88
2022-09-27T08:58:33.870Z,96604.78
2022-09-27T09:01:03.786Z,96606.19
2022-09-27T09:03:36.563Z,96606.97
2022-09-27T09:06:12.460Z,96611.44
2022-09-27T09:08:50.701Z,96612.25
2022-09-27T09:11:46.499Z,96607.16
2022-09-27T09:14:30.341Z,96599.63
2022-09-27T09:17:07.056Z,96597.44
2022-09-27T09:19:47.645Z,96597.41
2022-09-27T09:22:29.822Z,96584.09
2022-09-27T09:25:09.277Z,96585.63
2022-09-27T09:27:42.563Z,96578.78
2022-09-27T09:30:21.391Z,96575.28
2022-09-27T09:33:01.670Z,96572.50
2022-09-27T09:35:35.828Z,96574.00
2022-09-27T09:38:10.545Z,96569.06
2022-09-27T09:40:42.536Z,96565.38
2022-09-27T09:43:17.483Z,96561.06
2022-09-27T09:45:48.582Z,96564.63
2022-09-27T09:48:18.385Z,96543.72
2022-09-27T09:50:49.788Z,96542.97
2022-09-27T09:53:20.637Z,96545.50
2022-09-27T09:55:53.915Z,96533.94
2022-09-27T09:58:25.879Z,96532.47
2022-09-27T10:00:57.520Z,96536.34
2022-09-27T10:03:25.874Z,96528.56
2022-09-27T10:05:56.807Z,96528.72
2022-09-27T10:08:25.755Z,96524.66
2022-09-27T10:10:54.144Z,96531.25
2022-09-27T10:13:23.288Z,96530.28
2022-09-27T10:15:56.771Z,96525.19
2022-09-27T10:18:26.567Z,96527.06
2022-09-27T10:20:58.592Z,96529.56
2022-09-27T10:23:27.218Z,96524.78
2022-09-27T10:25:56.827Z,96526.16
2022-09-27T10:28:34.339Z,96512.63
2022-09-27T10:31:04.724Z,96503.78
2022-09-27T10:33:33.717Z,96507.75
2022-09-27T10:36:04.035Z,96497.00
2022-09-27T10:38:34.247Z,96500.63
2022-09-27T10:41:18.719Z,96499.94
2022-09-27T10:43:47.104Z,96493.00
2022-09-27T10:46:22.149Z,96497.50
2022-09-27T10:48:52.097Z,96488.31
2022-09-27T10:51:26.991Z,96497.28
2022-09-27T10:53:58.861Z,96488.19
2022-09-27T10:56:30.333Z,96488.69
2022-09-27T10:59:00.145Z,96487.28
2022-09-27T11:01:29.079Z,96479.00
2022-09-27T11:03:59.864Z,96481.19
2022-09-27T11:06:38.111Z,96480.19
2022-09-27T11:09:20.139Z,96486.44
2022-09-27T11:11:48.507Z,96484.59
2022-09-27T11:14:24.309Z,96487.38
2022-09-27T11:17:09.950Z,96481.03
2022-09-27T11:20:09.984Z,96475.44
2022-09-27T11:23:00.385Z,96473.72
2022-09-27T11:25:35.300Z,96477.31
2022-09-27T11:28:08.141Z,96473.84
2022-09-27T11:30:41.118Z,96469.28
2022-09-27T11:33:22.437Z,96461.56
2022-09-27T11:35:57.344Z,96472.59
2022-09-27T11:38:52.067Z,96463.88
2022-09-27T11:41:37.594Z,96459.91
2022-09-27T11:44:22.983Z,96469.06
2022-09-27T11:46:54.679Z,96455.13
2022-09-27T11:49:41.565Z,96452.88
2022-09-27T11:52:19.855Z,96456.25
2022-09-27T11:55:01.617Z,96448.97
2022-09-27T11:57:34.569Z,96450.22
2022-09-27T12:00:18.056Z,96447.22
2022-09-27T12:03:21.980Z,96438.72
2022-09-27T12:06:06.359Z,96442.84
2022-09-27T12:08:54.894Z,96450.91
2022-09-27T12:11:28.245Z,96434.38
2022-09-27T12:13:58.818Z,96435.19
2022-09-27T12:16:27.728Z,96439.31
2022-09-27T12:18:56.124Z,96432.50
2022-09-27T12:21:25.963Z,96430.69
2022-09-27T12:23:57.897Z,96432.63
2022-09-27T12:26:32.209Z,96428.66
2022-09-27T12:29:04.219Z,96432.38
2022-09-27T12:31:36.026Z,96428.06
2022-09-27T12:34:17.427Z,96428.47
2022-09-27T12:36:51.058Z,96422.16
2022-09-27T12:39:22.525Z,96427.69
2022-09-27T12:41:56.588Z,96422.44
2022-09-27T12:44:24.694Z,96424.59
2022-09-27T12:47:01.860Z,96428.28
2022-09-27T12:49:39.745Z,96421.56
2022-09-27T12:52:12.084Z,96412.28
2022-09-27T12:55:05.321Z,96413.63
2022-09-27T12:57:42.602Z,96408.44
2022-09-27T13:00:14.984Z,96419.75
2022-09-27T13:03:15.863Z,96424.16
2022-09-27T13:06:20.739Z,96444.50
2022-09-27T13:09:25.446Z,96461.06
2022-09-27T13:12:01.489Z,96455.88
2022-09-27T13:14:34.631Z,96449.50
2022-09-27T13:17:02.952Z,96446.06
2022-09-27T13:19:45.591Z,96445.59
2022-09-27T13:22:37.588Z,96445.16
2022-09-27T13:25:54.348Z,96451.19
2022-09-27T13:28:35.610Z,96441.59
2022-09-27T13:31:06.914Z,96436.06
2022-09-27T13:33:43.376Z,96435.09
2022-09-27T13:36:21.812Z,96439.75
2022-09-27T13:39:20.034Z,96436.03
2022-09-27T13:42:08.525Z,96444.38
2022-09-27T13:44:48.122Z,96444.41
2022-09-27T13:47:26.698Z,96438.50
2022-09-27T13:49:59.385Z,96439.03
2022-09-27T13:52:33.780Z,96435.19
2022-09-27T13:55:03.341Z,96439.41
2022-09-27T13:57:48.739Z,96432.72
2022-09-27T14:00:20.077Z,96439.31
2022-09-27T14:02:58.038Z,96440.78
2022-09-27T14:05:29.795Z,96432.84
2022-09-27T14:08:02.433Z,96437.59
2022-09-27T14:10:30.867Z,96440.66
2022-09-27T14:13:01.445Z,96435.56
2022-09-27T14:15:30.863Z,96440.66
2022-09-27T14:18:00.804Z,96442.50
2022-09-27T14:20:40.969Z,96447.78
2022-09-27T14:23:17.506Z,96459.00
2022-09-27T14:25:47.285Z,96464.31
2022-09-27T14:28:22.616Z,96472.31
2022-09-27T14:31:06.509Z,96473.34
2022-09-27T14:33:37.016Z,96489.75
2022-09-27T14:36:25.706Z,96495.03
2022-09-27T14:38:53.953Z,96498.88
2022-09-27T14:41:22.431Z,96503.56
2022-09-27T14:43:51.266Z,96509.56
2022-09-27T14:46:27.862Z,96518.22
2022-09-27T14:48:59.385Z,96512.53
2022-09-27T14:51:30.223Z,96511.72
2022-09-27T14:54:01.453Z,96506.38
2022-09-27T14:56:32.452Z,96511.84
2022-09-27T14:59:04.891Z,96504.59
2022-09-27T15:01:35.187Z,96506.09
2022-09-27T15:04:13.009Z,96508.13
2022-09-27T15:06:41.392Z,96508.75
2022-09-27T15:09:14.449Z,96497.16
2022-09-27T15:11:43.320Z,96503.34
2022-09-27T15:14:14.738Z,96497.31
2022-09-27T15:16:43.240Z,96489.44
2022-09-27T15:19:19.136Z,96501.16
2022-09-27T15:21:47.588Z,96495.56
2022-09-27T15:24:37.365Z,96492.06
2022-09-27T15:27:08.604Z,96497.28
2022-09-27T15:29:37.071Z,96492.16
2022-09-27T15:32:06.818Z,96492.59
2022-09-27T15:34:37.497Z,96492.38
2022-09-27T15:37:06.484Z,96489.97
2022-09-27T15:39:36.148Z,96489.50
2022-09-27T15:42:07.140Z,96496.22
2022-09-27T15:44:41.180Z,96503.84
2022-09-27T15:47:40.227Z,96505.34
2022-09-27T15:50:36.007Z,96499.56
2022-09-27T15:53:07.061Z,96505.66
2022-09-27T15:55:37.807Z,96513.50
2022-09-27T15:58:08.375Z,96509.13
2022-09-27T16:00:37.253Z,96518.72
2022-09-27T16:03:05.714Z,96514.31
2022-09-27T16:05:35.619Z,96515.03
2022-09-27T16:08:04.435Z,96505.56
2022-09-27T16:10:37.935Z,96506.56
2022-09-27T16:13:06.448Z,96510.56
2022-09-27T16:15:34.767Z,96523.69
2022-09-27T16:18:03.331Z,96536.69
2022-09-27T16:20:32.612Z,96527.47
2022-09-27T16:23:02.855Z,96533.88
2022-09-27T16:25:31.106Z,96521.16
2022-09-27T16:27:59.965Z,96529.63
2022-09-27T16:30:28.657Z,96528.31
2022-09-27T16:32:57.187Z,96522.81
2022-09-27T16:35:26.671Z,96512.97
2022-09-27T16:37:54.930Z,96509.38
2022-09-27T16:40:26.754Z,96520.06
2022-09-27T16:42:55.230Z,96530.03
2022-09-27T16:45:23.431Z,96529.97
2022-09-27T16:47:51.632Z,96533.06
2022-09-27T16:50:37.470Z,96538.47
2022-09-27T16:53:06.188Z,96539.50
2022-09-27T16:55:36.863Z,96538.97
2022-09-27T16:58:05.774Z,96542.81
2022-09-27T17:00:34.350Z,96550.00
2022-09-27T17:03:02.776Z,96547.22
2022-09-27T17:05:32.069Z,96541.78
2022-09-27T17:08:00.152Z,96533.47
2022-09-27T17:10:28.791Z,96537.84
2022-09-27T17:12:58.539Z,96541.38
2022-09-27T17:15:27.055Z,96531.81
2022-09-27T17:17:55.408Z,96536.19
2022-09-27T17:20:23.580Z,96538.88
2022-09-27T17:22:51.815Z,96546.88
2022-09-27T17:25:20.389Z,96550.06
2022-09-27T17:27:49.368Z,96550.72
2022-09-27T17:30:21.391Z,96555.75
2022-09-27T17:32:49.892Z,96556.63
2022-09-27T17:35:18.250Z,96555.41
2022-09-27T17:37:46.444Z,96552.38
2022-09-27T17:40:16.313Z,96548.59
2022-09-27T17:42:44.824Z,96549.75
2022-09-27T17:45:12.992Z,96544.97
2022-09-27T17:48:00.320Z,96551.38
2022-09-27T17:50:29.033Z,96549.19
2022-09-27T17:52:58.818Z,96547.75
2022-09-27T17:55:27.658Z,96555.28
2022-09-27T17:57:56.371Z,96558.94
2022-09-27T18:00:24.743Z,96554.94
2022-09-27T18:02:54.372Z,96567.00
2022-09-27T18:05:22.631Z,96572.41
2022-09-27T18:07:51.334Z,96561.72
2022-09-27T18:10:20.061Z,96567.28
2022-09-27T18:12:48.576Z,96576.66
2022-09-27T18:15:21.895Z,96577.41
2022-09-27T18:17:57.214Z,96577.13
2022-09-27T18:20:27.712Z,96583.13
2022-09-27T18:22:56.584Z,96578.19
2022-09-27T18:25:25.409Z,96582.66
2022-09-27T18:27:55.822Z,96579.03
2022-09-27T18:30:25.289Z,96575.81
2022-09-27T18:32:54.458Z,96576.41
2022-09-27T18:35:24.511Z,96585.94
2022-09-27T18:37:54.799Z,96575.91
2022-09-27T18:40:38.354Z,96572.09
2022-09-27T18:43:11.989Z,96579.03
2022-09-27T18:45:40.487Z,96585.78
2022-09-27T18:48:08.811Z,96585.78
2022-09-27T18:50:37.745Z,96592.97
2022-09-27T18:53:09.167Z,96591.50
2022-09-27T18:55:38.625Z,96587.00
2022-09-27T18:58:07.515Z,96578.31
2022-09-27T19:00:35.889Z,96575.13
2022-09-27T19:03:04.404Z,96574.75
2022-09-27T19:05:32.782Z,96575.47
2022-09-27T19:08:01.023Z,96572.72
2022-09-27T19:10:30.644Z,96573.03
2022-09-27T19:13:01.299Z,96574.81
2022-09-27T19:15:29.674Z,96576.34
2022-09-27T19:17:57.922Z,96584.78
2022-09-27T19:20:26.397Z,96578.25
2022-09-27T19:22:54.444Z,96578.75
2022-09-27T19:25:22.645Z,96571.41
2022-09-27T19:27:52.962Z,96579.56
2022-09-27T19:30:21.202Z,96577.88
2022-09-27T19:32:49.356Z,96579.34
2022-09-27T19:35:18.318Z,96577.31
2022-09-27T19:37:46.418Z,96576.06
2022-09-27T19:40:14.695Z,96584.34
2022-09-27T19:42:43.037Z,96578.94
2022-09-27T19:45:13.180Z,96573.09
2022-09-27T19:47:41.377Z,96584.06
2022-09-27T19:50:10.649Z,96574.75
2022-09-27T19:52:39.243Z,96578.81
2022-09-27T19:55:08.735Z,96580.72
2022-09-27T19:57:37.263Z,96576.31
2022-09-27T20:00:06.567Z,96578.31
2022-09-27T20:02:36.377Z,96580.28
2022-09-27T20:05:05.186Z,96581.56
2022-09-27T20:07:35.126Z,96576.31
2022-09-27T20:10:04.486Z,96574.94
2022-09-27T20:12:32.599Z,96571.59
2022-09-27T20:15:00.731Z,96578.00
2022-09-27T20:17:33.624Z,96586.88
2022-09-27T20:20:03.165Z,96578.69
2022-09-27T20:22:31.551Z,96585.69
2022-09-27T20:24:59.743Z,96585.84
2022-09-27T20:27:27.966Z,96584.25
2022-09-27T20:29:57.335Z,96585.91
2022-09-27T20:32:29.888Z,96593.38
2022-09-27T20:34:58.614Z,96602.03
2022-09-27T20:37:28.431Z,96601.25
2022-09-27T20:39:56.780Z,96611.91
2022-09-27T20:42:25.046Z,96608.06
2022-09-27T20:44:54.506Z,96605.50
2022-09-27T20:47:23.203Z,96604.06
2022-09-27T20:49:51.622Z,96610.81
2022-09-27T20:52:19.796Z,96603.41
2022-09-27T20:54:49.349Z,96598.22
2022-09-27T20:57:27.745Z,96604.56
2022-09-27T21:00:03.621Z,96613.75
2022-09-27T21:02:32.287Z,96611.66
2022-09-27T21:05:00.344Z,96614.16
2022-09-27T21:07:28.578Z,96609.56
2022-09-27T21:09:58.333Z,96597.28
2022-09-27T21:12:26.601Z,96594.16
2022-09-27T21:14:54.646Z,96590.94
2022-09-27T21:17:24.041Z,96597.91
2022-09-27T21:19:52.786Z,96599.41
2022-09-27T21:22:21.082Z,96594.25
2022-09-27T21:24:49.314Z,96592.22
2022-09-27T21:27:18.818Z,96591.31
2022-09-27T21:29:47.091Z,96596.13
2022-09-27T21:32:15.514Z,96598.97
2022-09-27T21:34:43.648Z,96605.38
2022-09-27T21:37:11.820Z,96607.16
2022-09-27T21:39:40.417Z,96597.81
2022-09-27T21:42:08.448Z,96601.91
2022-09-27T21:44:37.966Z,96605.44
2022-09-27T21:47:06.563Z,96603.56
2022-09-27T21:49:35.858Z,96614.34
2022-09-27T21:52:04.136Z,96605.28
2022-09-27T21:54:32.765Z,96610.81
2022-09-27T21:57:02.202Z,96606.75
2022-09-27T21:59:30.393Z,96603.69
2022-09-27T22:02:00.174Z,96610.56
2022-09-27T22:04:28.427Z,96619.97
2022-09-27T22:06:56.482Z,96623.69
2022-09-27T22:09:24.845Z,96619.59
2022-09-27T22:11:53.043Z,96624.66
2022-09-27T22:14:21.146Z,96612.31
2022-09-27T22:16:49.628Z,96615.59
2022-09-27T22:19:19.436Z,96621.31
2022-09-27T22:21:47.646Z,96609.66
2022-09-27T22:24:17.728Z,96621.25
2022-09-27T22:26:48.311Z,96622.22
2022-09-27T22:29:17.131Z,96624.16
2022-09-27T22:31:45.577Z,96620.91
2022-09-27T22:34:18.732Z,96624.75
2022-09-27T22:36:48.876Z,96622.44
2022-09-27T22:39:17.009Z,96613.09
2022-09-27T22:41:45.324Z,96613.56
2022-09-27T22:44:13.696Z,96618.44
2022-09-27T22:46:41.952Z,96613.44
2022-09-27T22:49:10.200Z,96620.38
2022-09-27T22:51:38.530Z,96613.91
2022-09-27T22:54:08.193Z,96610.97
2022-09-27T22:56:36.346Z,96616.41
2022-09-27T22:59:04.652Z,96610.25
2022-09-27T23:01:32.804Z,96617.44
2022-09-27T23:04:00.915Z,96615.22
2022-09-27T23:06:29.376Z,96621.72
2022-09-27T23:08:58.238Z,96619.59
2022-09-27T23:11:27.968Z,96622.09
2022-09-27T23:13:56.571Z,96618.84
2022-09-27T23:16:25.479Z,96612.09
2022-09-27T23:18:54.608Z,96611.56
2022-09-27T23:21:26.008Z,96608.47
2022-09-27T23:23:55.350Z,96610.59
2022-09-27T23:26:26.380Z,96605.53
2022-09-27T23:28:56.402Z,96607.31
2022-09-27T23:31:25.266Z,96600.47
2022-09-27T23:33:54.672Z,96614.84
2022-09-27T23:36:25.711Z,96603.84
2022-09-27T23:38:55.309Z,96608.47
2022-09-27T23:41:23.572Z,96605.00
2022-09-27T23:43:51.742Z,96612.28
2022-09-27T23:46:21.865Z,96615.22
2022-09-27T23:48:49.959Z,96607.06
2022-09-27T23:51:20.488Z,96613.28
2022-09-27T23:53:48.509Z,96605.63
2022-09-27T23:56:17.524Z,96615.56
2022-09-27T23:58:46.900Z,96609.53
